createdAt,value
2022-08-26T00:00:51.853Z,20.10
2022-08-26T00:03:23.913Z,20.00
2022-08-26T00:05:54.146Z,20.00
2022-08-26T00:08:23.509Z,20.00
2022-08-26T00:10:52.181Z,20.00
2022-08-26T00:13:20.917Z,19.90
2022-08-26T00:15:51.226Z,19.90
2022-08-26T00:18:22.342Z,19.90
2022-08-26T00:20:52.797Z,19.80
2022-08-26T00:23:24.114Z,19.80
2022-08-26T00:25:53.492Z,19.80
2022-08-26T00:28:23.305Z,19.70
2022-08-26T00:30:52.677Z,19.70
2022-08-26T00:33:22.983Z,19.60
2022-08-26T00:35:53.413Z,19.70
2022-08-26T00:38:22.998Z,19.60
2022-08-26T00:40:55.143Z,19.60
2022-08-26T00:43:25.156Z,19.60
2022-08-26T00:45:59.805Z,19.60
2022-08-26T00:48:34.982Z,19.60
2022-08-26T00:51:10.194Z,19.50
2022-08-26T00:53:45.496Z,19.60
2022-08-26T00:56:21.563Z,19.50
2022-08-26T00:58:51.858Z,19.50
2022-08-26T01:01:22.948Z,19.50
2022-08-26T01:03:52.249Z,19.50
2022-08-26T01:06:22.826Z,19.40
2022-08-26T01:08:52.873Z,19.40
2022-08-26T01:11:21.914Z,19.50
2022-08-26T01:13:54.690Z,19.50
2022-08-26T01:16:25.842Z,19.40
2022-08-26T01:18:58.568Z,19.30
2022-08-26T01:21:32.589Z,19.20
2022-08-26T01:24:03.027Z,19.30
2022-08-26T01:26:35.467Z,19.20
2022-08-26T01:29:07.236Z,19.10
2022-08-26T01:31:41.688Z,19.10
2022-08-26T01:34:17.390Z,19.00
2022-08-26T01:36:51.059Z,19.00
2022-08-26T01:39:22.101Z,18.90
2022-08-26T01:41:54.675Z,18.90
2022-08-26T01:44:29.224Z,18.90
2022-08-26T01:46:59.463Z,18.90
2022-08-26T01:49:28.927Z,18.90
2022-08-26T01:52:02.040Z,18.90
2022-08-26T01:54:33.896Z,18.90
2022-08-26T01:57:03.681Z,18.90
2022-08-26T01:59:32.789Z,18.90
2022-08-26T02:02:01.649Z,18.90
2022-08-26T02:04:34.615Z,18.90
2022-08-26T02:07:07.503Z,18.80
2022-08-26T02:09:41.199Z,18.80
2022-08-26T02:12:11.924Z,18.80
2022-08-26T02:14:44.514Z,18.80
2022-08-26T02:17:13.986Z,18.80
2022-08-26T02:19:47.241Z,18.80
2022-08-26T02:22:20.756Z,18.70
2022-08-26T02:24:53.116Z,18.70
2022-08-26T02:27:25.750Z,18.60
2022-08-26T02:29:59.679Z,18.60
2022-08-26T02:32:30.090Z,18.50
2022-08-26T02:34:58.756Z,18.50
2022-08-26T02:37:31.039Z,18.60
2022-08-26T02:40:01.430Z,18.60
2022-08-26T02:42:30.512Z,18.50
2022-08-26T02:44:59.757Z,18.50
2022-08-26T02:47:29.208Z,18.50
2022-08-26T02:50:00.349Z,18.40
2022-08-26T02:52:29.263Z,18.40
2022-08-26T02:54:57.917Z,18.50
2022-08-26T02:57:27.981Z,18.50
2022-08-26T02:59:56.628Z,18.40
2022-08-26T03:02:25.438Z,18.40
2022-08-26T03:04:58.140Z,18.40
2022-08-26T03:07:32.281Z,18.30
2022-08-26T03:10:01.093Z,18.40
2022-08-26T03:12:37.396Z,18.40
2022-08-26T03:15:17.546Z,18.30
2022-08-26T03:17:49.109Z,18.40
2022-08-26T03:20:19.903Z,18.30
2022-08-26T03:22:51.387Z,18.30
2022-08-26T03:25:22.250Z,18.20
2022-08-26T03:27:54.526Z,18.20
2022-08-26T03:30:44.220Z,18.20
2022-08-26T03:33:15.180Z,18.20
2022-08-26T03:35:47.363Z,18.20
2022-08-26T03:38:16.865Z,18.10
2022-08-26T03:40:45.544Z,18.10
2022-08-26T03:43:16.955Z,18.10
2022-08-26T03:45:46.112Z,18.00
2022-08-26T03:48:15.612Z,18.00
2022-08-26T03:50:44.385Z,18.00
2022-08-26T03:53:13.467Z,18.00
2022-08-26T03:55:43.426Z,17.90
2022-08-26T03:58:12.399Z,17.90
2022-08-26T04:00:42.631Z,17.90
2022-08-26T04:03:18.532Z,17.90
2022-08-26T04:05:47.478Z,17.90
2022-08-26T04:08:16.168Z,17.90
2022-08-26T04:10:44.978Z,17.90
2022-08-26T04:13:13.818Z,17.90
2022-08-26T04:15:43.968Z,17.90
2022-08-26T04:18:13.459Z,17.90
2022-08-26T04:20:42.336Z,17.80
2022-08-26T04:23:11.455Z,17.80
2022-08-26T04:25:40.582Z,17.80
2022-08-26T04:28:09.358Z,17.70
2022-08-26T04:30:38.576Z,17.70
2022-08-26T04:33:12.877Z,17.70
2022-08-26T04:35:44.020Z,17.70
2022-08-26T04:38:12.802Z,17.70
2022-08-26T04:40:46.652Z,17.70
2022-08-26T04:43:16.373Z,17.70
2022-08-26T04:45:45.106Z,17.70
2022-08-26T04:48:16.840Z,17.70
2022-08-26T04:50:49.583Z,17.70
2022-08-26T04:53:18.376Z,17.70
2022-08-26T04:55:48.418Z,17.60
2022-08-26T04:58:18.185Z,17.60
2022-08-26T05:00:48.531Z,17.70
2022-08-26T05:03:19.334Z,17.70
2022-08-26T05:05:50.821Z,17.70
2022-08-26T05:08:22.388Z,17.70
2022-08-26T05:10:56.541Z,17.70
2022-08-26T05:13:27.298Z,17.70
2022-08-26T05:16:01.282Z,17.70
2022-08-26T05:18:31.661Z,17.60
2022-08-26T05:21:00.858Z,17.60
2022-08-26T05:23:31.989Z,17.70
2022-08-26T05:26:01.370Z,17.70
2022-08-26T05:28:33.647Z,17.70
2022-08-26T05:31:02.845Z,17.70
2022-08-26T05:33:32.985Z,17.70
2022-08-26T05:36:08.122Z,17.70
2022-08-26T05:38:38.013Z,17.70
2022-08-26T05:41:15.734Z,17.70
2022-08-26T05:43:45.959Z,17.70
2022-08-26T05:46:15.131Z,17.70
2022-08-26T05:48:46.847Z,17.80
2022-08-26T05:51:16.306Z,17.90
2022-08-26T05:53:54.497Z,17.90
2022-08-26T05:56:27.570Z,18.00
2022-08-26T05:58:58.501Z,18.10
2022-08-26T06:01:29.895Z,18.10
2022-08-26T06:04:02.021Z,18.20
2022-08-26T06:06:32.854Z,18.20
2022-08-26T06:09:04.077Z,18.30
2022-08-26T06:11:33.354Z,18.30
2022-08-26T06:14:05.906Z,18.40
2022-08-26T06:16:38.258Z,18.40
2022-08-26T06:19:10.623Z,18.40
2022-08-26T06:21:41.709Z,18.50
2022-08-26T06:24:31.178Z,18.50
2022-08-26T06:27:03.247Z,18.60
2022-08-26T06:29:34.540Z,18.70
2022-08-26T06:32:06.837Z,18.80
2022-08-26T06:34:36.993Z,18.90
2022-08-26T06:37:06.258Z,19.10
2022-08-26T06:39:35.518Z,19.10
2022-08-26T06:42:10.900Z,19.30
2022-08-26T06:44:41.648Z,19.40
2022-08-26T06:47:13.561Z,19.50
2022-08-26T06:49:44.311Z,19.60
2022-08-26T06:52:13.188Z,19.60
2022-08-26T06:54:43.206Z,19.70
2022-08-26T06:57:14.371Z,19.70
2022-08-26T06:59:45.614Z,19.80
2022-08-26T07:02:15.130Z,19.90
2022-08-26T07:04:48.108Z,20.00
2022-08-26T07:07:21.983Z,20.10
2022-08-26T07:09:52.389Z,20.20
2022-08-26T07:12:21.458Z,20.30
2022-08-26T07:14:50.795Z,20.40
2022-08-26T07:17:20.467Z,20.60
2022-08-26T07:19:50.741Z,20.70
2022-08-26T07:22:21.358Z,20.80
2022-08-26T07:24:50.222Z,20.80
2022-08-26T07:27:19.091Z,20.90
2022-08-26T07:29:47.807Z,21.10
2022-08-26T07:32:20.917Z,21.20
2022-08-26T07:34:53.076Z,21.30
2022-08-26T07:37:22.724Z,21.50
2022-08-26T07:39:52.148Z,21.60
2022-08-26T07:42:20.994Z,21.60
2022-08-26T07:44:50.211Z,21.70
2022-08-26T07:47:24.687Z,21.90
2022-08-26T07:49:57.398Z,22.00
2022-08-26T07:52:28.377Z,22.20
2022-08-26T07:54:58.168Z,22.30
2022-08-26T07:57:27.677Z,22.30
2022-08-26T07:59:57.211Z,22.60
2022-08-26T08:02:28.087Z,22.80
2022-08-26T08:04:58.874Z,22.90
2022-08-26T08:07:44.161Z,23.20
2022-08-26T08:10:15.573Z,23.20
2022-08-26T08:12:45.084Z,23.30
2022-08-26T08:15:15.436Z,23.40
2022-08-26T08:17:44.677Z,23.50
2022-08-26T08:20:16.266Z,23.50
2022-08-26T08:22:45.565Z,23.70
2022-08-26T08:25:16.420Z,23.90
2022-08-26T08:27:46.357Z,24.00
2022-08-26T08:30:22.683Z,24.40
2022-08-26T08:32:52.338Z,24.80
2022-08-26T08:35:24.134Z,24.80
2022-08-26T08:37:55.525Z,24.90
2022-08-26T08:40:26.803Z,24.90
2022-08-26T08:43:02.368Z,24.80
2022-08-26T08:45:39.449Z,24.80
2022-08-26T08:48:15.337Z,24.90
2022-08-26T08:50:50.168Z,24.90
2022-08-26T08:53:22.658Z,25.00
2022-08-26T08:56:05.769Z,25.20
2022-08-26T08:58:47.087Z,25.30
2022-08-26T09:01:26.476Z,25.30
2022-08-26T09:04:10.443Z,25.40
2022-08-26T09:06:42.754Z,25.50
2022-08-26T09:09:18.677Z,25.70
2022-08-26T09:11:47.689Z,25.70
2022-08-26T09:14:16.405Z,25.80
2022-08-26T09:16:51.677Z,25.80
2022-08-26T09:19:31.080Z,25.80
2022-08-26T09:22:05.744Z,25.80
2022-08-26T09:24:41.626Z,25.80
2022-08-26T09:27:11.650Z,26.00
2022-08-26T09:29:44.309Z,26.30
2022-08-26T09:32:21.867Z,26.40
2022-08-26T09:34:57.991Z,26.60
2022-08-26T09:37:41.445Z,26.60
2022-08-26T09:40:27.155Z,26.70
2022-08-26T09:43:09.313Z,26.80
2022-08-26T09:45:38.994Z,27.00
2022-08-26T09:48:09.489Z,27.10
2022-08-26T09:50:51.361Z,27.30
2022-08-26T09:53:28.825Z,27.50
2022-08-26T09:56:17.963Z,27.70
2022-08-26T09:58:48.547Z,27.80
2022-08-26T10:01:26.908Z,28.40
2022-08-26T10:04:08.538Z,28.90
2022-08-26T10:06:41.999Z,28.80
2022-08-26T10:09:18.133Z,28.80
2022-08-26T10:11:51.271Z,29.10
2022-08-26T10:14:25.254Z,29.00
2022-08-26T10:17:01.062Z,29.30
2022-08-26T10:19:41.769Z,29.30
2022-08-26T10:22:28.077Z,29.20
2022-08-26T10:25:03.087Z,29.10
2022-08-26T10:27:48.361Z,28.90
2022-08-26T10:30:23.883Z,28.70
2022-08-26T10:32:57.741Z,28.60
2022-08-26T10:35:27.069Z,28.40
2022-08-26T10:38:01.625Z,28.30
2022-08-26T10:40:42.041Z,28.20
2022-08-26T10:43:15.237Z,28.10
2022-08-26T10:45:48.890Z,27.90
2022-08-26T10:48:24.413Z,28.10
2022-08-26T10:50:53.813Z,28.40
2022-08-26T10:53:32.756Z,28.40
2022-08-26T10:56:18.802Z,28.50
2022-08-26T10:58:56.970Z,28.60
2022-08-26T11:01:46.957Z,29.20
2022-08-26T11:04:38.445Z,29.40
2022-08-26T11:07:33.463Z,29.90
2022-08-26T11:10:04.154Z,30.20
2022-08-26T11:16:11.512Z,30.30
2022-08-26T11:18:46.143Z,30.70
2022-08-26T11:22:06.022Z,30.60
2022-08-26T11:25:01.551Z,30.50
2022-08-26T11:27:56.550Z,30.50
2022-08-26T11:30:57.027Z,30.30
2022-08-26T11:33:59.621Z,30.10
2022-08-26T11:36:40.898Z,30.20
2022-08-26T11:39:20.692Z,30.20
2022-08-26T11:41:53.089Z,30.10
2022-08-26T11:44:24.458Z,29.90
2022-08-26T11:46:55.731Z,30.00
2022-08-26T11:49:26.306Z,30.10
2022-08-26T11:52:09.935Z,30.10
2022-08-26T11:54:38.999Z,30.20
2022-08-26T11:57:13.397Z,30.10
2022-08-26T11:59:43.503Z,30.20
2022-08-26T12:02:15.970Z,30.20
2022-08-26T12:04:51.732Z,30.30
2022-08-26T12:07:25.265Z,30.30
2022-08-26T12:09:57.211Z,30.30
2022-08-26T12:12:34.546Z,30.10
2022-08-26T12:15:14.607Z,29.90
2022-08-26T12:17:44.779Z,29.80
2022-08-26T12:20:45.709Z,29.90
2022-08-26T12:23:26.865Z,30.00
2022-08-26T12:26:06.155Z,30.10
2022-08-26T12:28:35.121Z,30.00
2022-08-26T12:31:07.410Z,30.10
2022-08-26T12:33:36.996Z,30.00
2022-08-26T12:36:07.652Z,30.00
2022-08-26T12:38:40.408Z,29.90
2022-08-26T12:41:09.292Z,29.90
2022-08-26T12:43:42.031Z,29.90
2022-08-26T12:46:13.342Z,30.00
2022-08-26T12:48:45.759Z,30.20
2022-08-26T12:51:24.111Z,30.20
2022-08-26T12:53:53.757Z,30.20
2022-08-26T12:56:28.754Z,30.30
2022-08-26T12:59:12.187Z,30.50
2022-08-26T13:01:44.428Z,30.80
2022-08-26T13:04:32.870Z,31.10
2022-08-26T13:07:21.172Z,31.10
2022-08-26T13:09:51.699Z,31.30
2022-08-26T13:12:32.832Z,31.30
2022-08-26T13:15:02.779Z,31.50
2022-08-26T13:17:34.298Z,31.60
2022-08-26T13:20:04.424Z,31.70
2022-08-26T13:22:35.321Z,31.80
2022-08-26T13:25:04.133Z,32.00
2022-08-26T13:27:32.920Z,32.10
2022-08-26T13:30:01.738Z,32.10
2022-08-26T13:32:32.773Z,32.20
2022-08-26T13:35:05.735Z,32.10
2022-08-26T13:37:36.391Z,32.20
2022-08-26T13:40:07.211Z,32.20
2022-08-26T13:42:36.060Z,32.20
2022-08-26T13:45:06.483Z,32.30
2022-08-26T13:47:36.408Z,32.30
2022-08-26T13:50:06.492Z,32.20
2022-08-26T13:52:36.554Z,32.00
2022-08-26T13:55:06.755Z,31.60
2022-08-26T13:57:35.497Z,31.30
2022-08-26T14:00:05.048Z,31.10
2022-08-26T14:02:37.853Z,30.90
2022-08-26T14:05:07.719Z,30.90
2022-08-26T14:07:37.897Z,30.80
2022-08-26T14:10:07.795Z,30.70
2022-08-26T14:12:36.611Z,30.50
2022-08-26T14:15:05.967Z,30.40
2022-08-26T14:17:34.837Z,30.20
2022-08-26T14:20:05.074Z,30.00
2022-08-26T14:22:34.143Z,29.80
2022-08-26T14:25:04.242Z,29.60
2022-08-26T14:27:34.748Z,29.50
2022-08-26T14:30:03.465Z,29.50
2022-08-26T14:32:33.392Z,29.20
2022-08-26T14:35:02.810Z,28.20
2022-08-26T14:37:31.901Z,27.00
2022-08-26T14:40:00.840Z,26.60
2022-08-26T14:42:31.353Z,26.40
2022-08-26T14:45:03.874Z,26.30
2022-08-26T14:47:33.060Z,26.20
2022-08-26T14:50:02.622Z,25.80
2022-08-26T14:52:52.050Z,25.40
2022-08-26T14:55:19.845Z,25.00
2022-08-26T14:57:50.524Z,24.90
2022-08-26T15:00:19.769Z,24.80
2022-08-26T15:02:48.645Z,24.80
2022-08-26T15:05:17.519Z,24.70
2022-08-26T15:07:46.751Z,24.70
2022-08-26T15:10:16.888Z,24.70
2022-08-26T15:12:46.003Z,24.80
2022-08-26T15:15:18.575Z,24.70
2022-08-26T15:17:47.331Z,24.70
2022-08-26T15:20:18.228Z,24.70
2022-08-26T15:22:47.000Z,24.60
2022-08-26T15:25:15.919Z,24.50
2022-08-26T15:27:44.567Z,24.30
2022-08-26T15:30:16.608Z,24.10
2022-08-26T15:32:45.430Z,24.00
2022-08-26T15:35:14.107Z,23.80
2022-08-26T15:37:42.874Z,23.70
2022-08-26T15:40:12.404Z,23.60
2022-08-26T15:42:41.550Z,23.40
2022-08-26T15:45:10.998Z,23.30
2022-08-26T15:48:00.733Z,22.80
2022-08-26T15:50:30.119Z,22.30
2022-08-26T15:52:59.635Z,21.90
2022-08-26T15:55:28.498Z,21.40
2022-08-26T15:57:57.183Z,20.80
2022-08-26T16:00:27.152Z,20.40
2022-08-26T16:02:57.224Z,20.20
2022-08-26T16:05:25.967Z,20.20
2022-08-26T16:07:55.029Z,20.10
2022-08-26T16:10:23.915Z,20.20
2022-08-26T16:12:53.880Z,20.30
2022-08-26T16:15:22.546Z,20.40
2022-08-26T16:17:51.284Z,20.40
2022-08-26T16:20:21.362Z,20.40
2022-08-26T16:22:50.160Z,20.40
2022-08-26T16:25:18.907Z,20.40
2022-08-26T16:27:47.928Z,20.40
2022-08-26T16:30:16.991Z,20.40
2022-08-26T16:32:45.746Z,20.30
2022-08-26T16:35:14.792Z,20.30
2022-08-26T16:37:45.807Z,20.20
2022-08-26T16:40:14.580Z,20.10
2022-08-26T16:42:43.353Z,19.80
2022-08-26T16:45:12.658Z,19.70
2022-08-26T16:47:41.731Z,19.60
2022-08-26T16:50:12.912Z,19.60
2022-08-26T16:52:42.461Z,19.60
2022-08-26T16:55:16.177Z,19.60
2022-08-26T16:57:46.154Z,19.60
2022-08-26T17:00:18.701Z,19.60
2022-08-26T17:02:47.669Z,19.60
2022-08-26T17:05:16.879Z,19.50
2022-08-26T17:07:46.083Z,19.50
2022-08-26T17:10:16.319Z,19.50
2022-08-26T17:12:45.133Z,19.60
2022-08-26T17:15:15.168Z,19.60
2022-08-26T17:17:44.161Z,19.60
2022-08-26T17:20:16.350Z,19.60
2022-08-26T17:22:48.213Z,19.60
2022-08-26T17:25:21.139Z,19.60
2022-08-26T17:27:50.025Z,19.60
2022-08-26T17:30:19.244Z,19.60
2022-08-26T17:32:48.102Z,19.70
2022-08-26T17:35:17.648Z,19.70
2022-08-26T17:37:47.610Z,19.70
2022-08-26T17:40:20.455Z,19.70
2022-08-26T17:42:49.700Z,19.60
2022-08-26T17:47:47.219Z,19.70
2022-08-26T17:50:18.165Z,19.70
2022-08-26T17:52:46.960Z,19.60
2022-08-26T17:55:17.963Z,19.60
2022-08-26T17:57:53.268Z,19.60
2022-08-26T18:00:26.401Z,19.60
2022-08-26T18:02:55.449Z,19.60
2022-08-26T18:05:24.790Z,19.70
2022-08-26T18:07:54.376Z,19.70
2022-08-26T18:10:25.537Z,19.70
2022-08-26T18:12:55.675Z,19.60
2022-08-26T18:15:24.859Z,19.60
2022-08-26T18:17:53.694Z,19.60
2022-08-26T18:20:22.869Z,19.60
2022-08-26T18:22:51.579Z,19.50
2022-08-26T18:25:20.573Z,19.40
2022-08-26T18:27:49.309Z,19.40
2022-08-26T18:30:22.120Z,19.50
2022-08-26T18:32:51.943Z,19.50
2022-08-26T18:35:21.322Z,19.50
2022-08-26T18:37:50.227Z,19.50
2022-08-26T18:40:19.012Z,19.60
2022-08-26T18:42:49.380Z,19.60
2022-08-26T18:45:24.429Z,19.60
2022-08-26T18:47:53.245Z,19.60
2022-08-26T18:50:22.083Z,19.60
2022-08-26T18:52:50.801Z,19.60
2022-08-26T18:55:19.590Z,19.60
2022-08-26T18:57:48.309Z,19.70
2022-08-26T19:00:17.581Z,19.70
2022-08-26T19:02:52.258Z,19.70
2022-08-26T19:05:25.501Z,19.60
2022-08-26T19:07:56.508Z,19.60
2022-08-26T19:10:25.624Z,19.60
2022-08-26T19:12:56.321Z,19.60
2022-08-26T19:15:27.464Z,19.60
2022-08-26T19:17:57.544Z,19.50
2022-08-26T19:20:26.234Z,19.50
2022-08-26T19:22:57.453Z,19.50
2022-08-26T19:25:28.488Z,19.50
2022-08-26T19:27:57.630Z,19.50
2022-08-26T19:30:26.448Z,19.50
2022-08-26T19:32:59.573Z,19.50
2022-08-26T19:35:30.712Z,19.50
2022-08-26T19:37:59.502Z,19.40
2022-08-26T19:40:29.239Z,19.50
2022-08-26T19:42:58.057Z,19.50
2022-08-26T19:45:27.141Z,19.50
2022-08-26T19:47:56.103Z,19.40
2022-08-26T19:50:27.784Z,19.40
2022-08-26T19:52:56.596Z,19.40
2022-08-26T19:55:27.361Z,19.40
2022-08-26T19:57:56.140Z,19.40
2022-08-26T20:00:26.955Z,19.40
2022-08-26T20:02:56.763Z,19.40
2022-08-26T20:05:28.285Z,19.40
2022-08-26T20:07:57.465Z,19.30
2022-08-26T20:10:26.955Z,19.30
2022-08-26T20:12:56.363Z,19.20
2022-08-26T20:15:25.359Z,19.30
2022-08-26T20:17:57.861Z,19.20
2022-08-26T20:20:45.221Z,19.20
2022-08-26T20:23:14.063Z,19.20
2022-08-26T20:25:43.205Z,19.20
2022-08-26T20:28:12.148Z,19.20
2022-08-26T20:30:40.954Z,19.20
2022-08-26T20:33:09.684Z,19.20
2022-08-26T20:35:39.780Z,19.20
2022-08-26T20:38:10.463Z,19.20
2022-08-26T20:40:39.879Z,19.20
2022-08-26T20:43:08.669Z,19.20
2022-08-26T20:45:37.691Z,19.20
2022-08-26T20:48:06.818Z,19.20
2022-08-26T20:50:35.807Z,19.10
2022-08-26T20:53:06.001Z,19.10
2022-08-26T20:55:34.790Z,19.00
2022-08-26T20:58:03.727Z,19.00
2022-08-26T21:00:32.973Z,19.00
2022-08-26T21:03:01.722Z,18.90
2022-08-26T21:05:30.483Z,18.90
2022-08-26T21:07:59.267Z,18.90
2022-08-26T21:10:30.495Z,18.90
2022-08-26T21:12:59.532Z,18.80
2022-08-26T21:15:28.383Z,18.80
2022-08-26T21:17:57.161Z,18.80
2022-08-26T21:20:26.218Z,18.80
2022-08-26T21:22:54.977Z,18.70
2022-08-26T21:25:24.004Z,18.70
2022-08-26T21:27:55.635Z,18.60
2022-08-26T21:30:24.894Z,18.60
2022-08-26T21:32:53.887Z,18.50
2022-08-26T21:35:22.967Z,18.50
2022-08-26T21:37:51.723Z,18.40
2022-08-26T21:40:20.772Z,18.30
2022-08-26T21:42:49.847Z,18.30
2022-08-26T21:45:20.190Z,18.20
2022-08-26T21:47:48.952Z,18.20
2022-08-26T21:50:17.898Z,18.20
2022-08-26T21:52:47.310Z,18.10
2022-08-26T21:55:16.093Z,18.20
2022-08-26T21:57:44.892Z,18.20
2022-08-26T22:00:15.834Z,18.20
2022-08-26T22:02:45.959Z,18.10
2022-08-26T22:05:14.848Z,18.10
2022-08-26T22:07:43.611Z,18.10
2022-08-26T22:10:12.475Z,18.10
2022-08-26T22:12:41.295Z,18.10
2022-08-26T22:15:11.099Z,18.10
2022-08-26T22:17:40.543Z,18.00
2022-08-26T22:20:11.538Z,17.90
2022-08-26T22:22:45.773Z,17.90
2022-08-26T22:25:14.731Z,18.00
2022-08-26T22:27:43.406Z,18.00
2022-08-26T22:30:12.770Z,18.00
2022-08-26T22:32:41.507Z,18.00
2022-08-26T22:35:29.101Z,18.00
2022-08-26T22:37:59.150Z,18.00
2022-08-26T22:40:28.363Z,18.00
2022-08-26T22:43:00.247Z,18.00
2022-08-26T22:45:31.276Z,18.00
2022-08-26T22:48:00.274Z,18.00
2022-08-26T22:50:30.348Z,18.00
2022-08-26T22:52:59.518Z,18.00
2022-08-26T22:55:28.373Z,18.00
2022-08-26T22:57:57.070Z,18.00
2022-08-26T23:00:32.073Z,18.00
2022-08-26T23:03:01.897Z,18.00
2022-08-26T23:05:32.762Z,18.00
2022-08-26T23:08:01.869Z,18.00
2022-08-26T23:10:30.826Z,18.00
2022-08-26T23:12:59.938Z,18.00
2022-08-26T23:15:28.711Z,18.00
2022-08-26T23:17:58.432Z,17.90
2022-08-26T23:20:29.011Z,17.90
2022-08-26T23:22:59.183Z,17.90
2022-08-26T23:25:29.562Z,17.90
2022-08-26T23:27:59.812Z,17.90
2022-08-26T23:30:30.732Z,17.90
2022-08-26T23:32:59.618Z,17.90
2022-08-26T23:35:27.547Z,17.90
2022-08-26T23:37:57.788Z,17.90
2022-08-26T23:40:32.131Z,17.90
2022-08-26T23:43:03.480Z,17.90
2022-08-26T23:45:33.272Z,17.90
2022-08-26T23:48:03.093Z,17.90
2022-08-26T23:50:50.703Z,17.90
2022-08-26T23:53:21.785Z,17.90
2022-08-26T23:55:53.421Z,17.90
2022-08-26T23:58:22.523Z,17.90
